Toimi, Minnesota
Current Conditions -  °F | °C
As of 10:15 AM on Saturday 25 Oct 2014 (Local Time) from KTWM Reporting Station
Clear Clear  
Wind Chill: 54°   Ceiling: Unl
Heat Index: 54°   Visibility: 10mi
Dew Point: 19°   Wind: 14mph
Humidity: 26%   Direction: 290°WNW
Pressure: 29.86"   Gusts: 29mph
Location:  47.3998°N, 91.9141°W
Report Text: KTWM 251515Z AUTO 29012G25KT 261V331 10SM CLR 12/M07 A2986 RMK AO2
Loading
Personal Weather Stations






























Interactive Weather Map
Tropical Storm Tracking
New forecast layout! Learn more

10-Day Weather Forecast

Advertisements
Track Severe Weather on mobile